Durango, CO

11:41 PM MDT on August 22, 2014 (GMT -0600)
Falls Creek Ranch | Change Station
CLOSE
Current Station
Personal Weather Station
Location: Durango, CO
Elevation: 7560 ft
Nearby Weather Stations

Elev 7560 ft 37.29 °N, 107.87 °W | Updated 14 minutes ago

Overcast
Overcast
46.7 °F
Feels Like 47 °F
N
0.0
Wind Variable Wind from NNE

Today
High -- | Low -- °F
--% Chance of Precip.
Yesterday
High -- | Low -- °F
Precip. -- in
6:33 AM 7:54 PM
Waning Crescent, 5% visible
Pressure 30.03 in
Visibility 10.0 miles
Clouds Overcast 8000 ft
Windchill 47 °F
Dew Point 47 °F
Humidity 100%
Rainfall 0.62 in
Snow Depth 1 in , 0 in , 0 in
UV 0 out of 12
Pollen 7.40 out of 12
Air Quality Not available.
Flu Activity Not available.
METAR KDRO 230453Z AUTO 00000KT 10SM OVC080 12/11 A3021 RMK AO2 SLP168 T01170111

More Conditions Fewer Conditions

Pressure 30.03 in
Visibility 10.0 miles
Clouds Overcast 8000 ft
Windchill 47 °F
Dew Point 47 °F
Humidity 100%
Rainfall 0.62 in
Snow Depth 1 in , 0 in , 0 in
UV 0 out of 12
Pollen 7.40 out of 12
Air Quality Not available.
Flu Activity Not available.
METAR KDRO 230453Z AUTO 00000KT 10SM OVC080 12/11 A3021 RMK AO2 SLP168 T01170111

More Conditions Fewer Conditions

10-Day Weather Forecast

Almanac

Astronomy

Aug. 22, 2014 Rise Set
Actual Time 6:33 AM MDT 7:54 PM MDT
Civil Twilight 6:06 AM MDT 8:21 PM MDT
Nautical Twilight 5:33 AM MDT 8:53 PM MDT
Astronomical Twilight 4:59 AM MDT 9:27 PM MDT
Moon 4:00 AM MDT (8/22) 6:03 PM MDT (8/22)
Length of Visible Light 14h 15m
Length of Day
13h 20m
Tomorrow will be 2m 13s shorter.
Waning Crescent, 5% of the Moon is Illuminated
Aug 23
Waning Crescent
Aug 25
New
Sep 2
First Quarter
Sep 8
Full
Sep 15
Last Quarter

Yesterday's Extremes

State Highs State Lows

Community

WunderPhotos

Upload Photos

1,746,372 photos uploaded!

WunderBlogs® & News

By Dr. Jeff Masters
Director of Meteorology, Weather Underground
By Kari Strenfel
Meteorologist, Weather Underground
By Christopher C. Burt
Weather Historian, Weather Underground
August 23, 2014
August 23, 2014
August 22, 2014

Nearby

Snow Depth

Station Depth Elevation
Columbus Basin 1 in 10785 ft
Sharkstooth 0 in 10720 ft
Mancos 0 in 10000 ft
Vallecito 1 in 10880 ft
Cascade 0 in 8880 ft

Earthquake Activity

City Distance Mag. Time & Date
No recent earthquake activity has been reported nearby.
Minimum magnitude displayed is 2.5.

Coastal Water Temperatures

Place Temperature
No Stations Reporting

Nearby Weather Stations